Time;durP1;ratioP1;P1;durP2;ratioP2;P2;SDS_P1;SDS_P2;PMS_P1;PMS_P2;Temp;Humidity;BMP_temperature;BMP_pressure;BME280_temperature;BME280_humidity;BME280_pressure;Samples;Min_cycle;Max_cycle;Signal;HPM_P1;HPM_P2
2023/05/10 00:00:43;;;;;;;12.07;5.60;;;;;;;;;;6337271;28;20016;-76
2023/05/10 00:03:43;;;;;;;16.13;6.17;;;;;;;;;;6337414;28;20425;-76
2023/05/10 00:06:43;;;;;;;10.45;6.28;;;;;;;;;;6318798;28;20031;-76
2023/05/10 00:09:43;;;;;;;12.20;6.28;;;;;;;;;;6326397;28;20028;-76
2023/05/10 00:12:44;;;;;;;13.93;5.63;;;;;;;;;;6316692;28;20024;-76
2023/05/10 00:15:44;;;;;;;11.68;6.18;;;;;;;;;;6338782;28;20490;-76
2023/05/10 00:18:44;;;;;;;12.70;5.22;;;;;;;;;;6329512;28;20126;-76
2023/05/10 00:21:44;;;;;;;12.93;6.47;;;;;;;;;;6328346;28;20081;-79
2023/05/10 00:24:44;;;;;;;18.53;6.30;;;;;;;;;;6342299;28;20008;-79
2023/05/10 00:27:45;;;;;;;14.30;7.20;;;;;;;;;;6310574;28;20763;-79
2023/05/10 00:30:45;;;;;;;19.17;7.00;;;;;;;;;;6321447;28;20073;-80
2023/05/10 00:33:45;;;;;;;16.07;7.03;;;;;;;;;;6344443;28;20015;-79
2023/05/10 00:36:45;;;;;;;16.67;6.83;;;;;;;;;;6336840;28;20272;-79
2023/05/10 00:39:45;;;;;;;18.33;6.33;;;;;;;;;;6336635;28;20285;-79
2023/05/10 00:42:46;;;;;;;15.13;7.05;;;;;;;;;;6326016;28;20269;-79
2023/05/10 00:45:46;;;;;;;13.23;6.57;;;;;;;;;;6331151;28;20253;-79
2023/05/10 00:48:46;;;;;;;14.48;7.47;;;;;;;;;;6332221;28;20282;-79
2023/05/10 00:51:47;;;;;;;13.50;6.67;;;;;;;;;;6343754;28;20016;-79
2023/05/10 00:54:47;;;;;;;17.08;6.82;;;;;;;;;;6337454;28;20047;-80
2023/05/10 00:57:47;;;;;;;12.25;6.10;;;;;;;;;;6337022;28;20354;-79
2023/05/10 01:00:48;;;;;;;14.10;6.00;;;;;;;;;;6334363;27;20074;-80
2023/05/10 01:03:49;;;;;;;14.20;6.80;;;;;;;;;;6330075;28;20030;-80
2023/05/10 01:06:49;;;;;;;14.68;6.50;;;;;;;;;;6323630;28;20026;-79
2023/05/10 01:09:49;;;;;;;12.47;5.90;;;;;;;;;;6332394;28;20073;-80
2023/05/10 01:12:50;;;;;;;10.83;6.27;;;;;;;;;;6329722;28;20016;-79
2023/05/10 01:15:50;;;;;;;14.93;7.03;;;;;;;;;;6336180;28;20016;-80
2023/05/10 01:18:51;;;;;;;19.27;7.17;;;;;;;;;;6332713;28;20024;-80
2023/05/10 01:21:51;;;;;;;13.60;6.53;;;;;;;;;;6342105;28;20474;-79
2023/05/10 01:24:57;;;;;;;16.75;6.70;;;;;;;;;;6344563;28;20011;-79
2023/05/10 01:27:59;;;;;;;15.18;7.07;;;;;;;;;;6335146;28;20016;-79
2023/05/10 01:31:03;;;;;;;14.88;5.43;;;;;;;;;;6343225;28;20024;-79
2023/05/10 01:34:07;;;;;;;18.13;7.40;;;;;;;;;;6327611;28;20023;-79
2023/05/10 01:37:10;;;;;;;12.77;6.03;;;;;;;;;;6323144;28;20017;-80
2023/05/10 01:40:26;;;;;;;19.63;6.18;;;;;;;;;;6330633;28;20024;-80
2023/05/10 01:43:30;;;;;;;14.68;6.72;;;;;;;;;;6308679;28;20611;-79
2023/05/10 01:46:37;;;;;;;14.65;5.75;;;;;;;;;;6340996;28;20518;-79
2023/05/10 01:49:57;;;;;;;13.15;6.55;;;;;;;;;;6329944;28;20039;-80
2023/05/10 01:52:58;;;;;;;13.75;5.40;;;;;;;;;;6325731;28;20024;-80
2023/05/10 01:55:59;;;;;;;13.13;6.00;;;;;;;;;;6332058;28;20020;-80
2023/05/10 01:59:01;;;;;;;11.57;6.53;;;;;;;;;;6309043;28;20023;-79
2023/05/10 02:02:01;;;;;;;13.60;5.40;;;;;;;;;;6329240;28;20049;-80
2023/05/10 02:05:03;;;;;;;11.07;5.85;;;;;;;;;;6325200;28;20019;-79
2023/05/10 02:08:06;;;;;;;11.23;6.18;;;;;;;;;;6337685;28;20047;-80
2023/05/10 02:11:06;;;;;;;14.77;6.70;;;;;;;;;;6321231;28;20026;-76
2023/05/10 02:14:08;;;;;;;11.23;5.40;;;;;;;;;;6318709;28;20016;-76
2023/05/10 02:17:09;;;;;;;10.85;6.07;;;;;;;;;;6311552;28;20099;-76
2023/05/10 02:20:10;;;;;;;12.15;5.47;;;;;;;;;;6332695;28;20012;-76
2023/05/10 02:23:10;;;;;;;9.98;5.43;;;;;;;;;;6326437;28;20501;-76
2023/05/10 02:26:11;;;;;;;11.87;6.57;;;;;;;;;;6332679;28;20427;-76
2023/05/10 02:29:12;;;;;;;11.60;5.73;;;;;;;;;;6332048;28;20023;-75
2023/05/10 02:32:13;;;;;;;13.32;6.15;;;;;;;;;;6330255;28;20202;-75
2023/05/10 02:35:15;;;;;;;14.57;6.13;;;;;;;;;;6325059;28;20095;-75
2023/05/10 02:38:16;;;;;;;10.70;5.63;;;;;;;;;;6305390;28;20438;-75
2023/05/10 02:41:16;;;;;;;9.57;5.72;;;;;;;;;;6322765;28;20254;-78
2023/05/10 02:44:20;;;;;;;11.87;5.50;;;;;;;;;;6325947;28;20023;-79
2023/05/10 02:47:20;;;;;;;13.23;6.18;;;;;;;;;;6328383;28;20015;-79
2023/05/10 02:50:21;;;;;;;10.05;6.18;;;;;;;;;;6323641;28;20090;-79
2023/05/10 02:53:23;;;;;;;11.73;5.82;;;;;;;;;;6329698;28;20485;-80
2023/05/10 02:56:25;;;;;;;11.63;4.65;;;;;;;;;;6336310;28;20091;-80
2023/05/10 02:59:25;;;;;;;;;;;;;;;;;;6339457;28;20011;-79
2023/05/10 03:02:25;;;;;;;12.23;6.22;;;;;;;;;;6334125;28;20404;-79
2023/05/10 03:05:27;;;;;;;16.70;7.45;;;;;;;;;;6322408;28;20020;-80
2023/05/10 03:08:29;;;;;;;9.50;5.57;;;;;;;;;;6335921;28;20066;-80
2023/05/10 03:11:49;;;;;;;12.52;6.43;;;;;;;;;;6340328;28;20584;-79
2023/05/10 03:14:52;;;;;;;14.18;7.78;;;;;;;;;;6324803;28;20036;-79
2023/05/10 03:17:56;;;;;;;13.63;6.55;;;;;;;;;;6329547;28;20903;-79
2023/05/10 03:21:02;;;;;;;11.02;6.20;;;;;;;;;;6343936;28;20390;-76
2023/05/10 03:24:06;;;;;;;13.90;6.82;;;;;;;;;;6326108;28;20024;-76
2023/05/10 03:27:07;;;;;;;11.63;6.68;;;;;;;;;;6328603;28;20024;-76
2023/05/10 03:30:08;;;;;;;12.40;7.53;;;;;;;;;;6329525;28;20031;-76
2023/05/10 03:33:09;;;;;;;12.43;6.27;;;;;;;;;;6329929;28;20141;-76
2023/05/10 03:36:09;;;;;;;13.07;6.27;;;;;;;;;;6326170;28;20038;-77
2023/05/10 03:39:10;;;;;;;11.87;6.53;;;;;;;;;;6334959;28;20099;-77
2023/05/10 03:42:11;;;;;;;11.37;6.53;;;;;;;;;;6322547;28;20024;-77
2023/05/10 03:45:11;;;;;;;13.05;6.15;;;;;;;;;;6337392;28;20031;-77
2023/05/10 03:48:13;;;;;;;12.73;6.63;;;;;;;;;;6325981;28;20106;-77
2023/05/10 03:51:13;;;;;;;12.60;6.40;;;;;;;;;;6308536;28;20043;-79
2023/05/10 03:54:15;;;;;;;14.50;6.90;;;;;;;;;;6311558;28;20028;-79
2023/05/10 03:57:15;;;;;;;14.55;6.40;;;;;;;;;;6329421;28;20148;-78
2023/05/10 04:00:15;;;;;;;17.58;8.02;;;;;;;;;;6334987;28;20027;-78
2023/05/10 04:03:16;;;;;;;11.13;5.97;;;;;;;;;;6337970;28;20027;-78
2023/05/10 04:06:16;;;;;;;12.85;6.68;;;;;;;;;;6326473;28;20055;-78
2023/05/10 04:09:17;;;;;;;11.98;5.75;;;;;;;;;;6322639;28;20095;-78
2023/05/10 04:12:17;;;;;;;11.95;6.50;;;;;;;;;;6341794;28;20015;-79
2023/05/10 04:15:17;;;;;;;9.90;5.78;;;;;;;;;;6332294;28;20016;-79
2023/05/10 04:18:17;;;;;;;12.30;6.00;;;;;;;;;;6313766;28;20016;-78
2023/05/10 04:21:17;;;;;;;8.82;5.25;;;;;;;;;;6340368;28;20034;-79
2023/05/10 04:24:18;;;;;;;11.40;6.63;;;;;;;;;;6331052;28;20031;-78
2023/05/10 04:27:18;;;;;;;9.88;5.85;;;;;;;;;;6329633;27;20027;-78
2023/05/10 04:30:18;;;;;;;14.82;6.50;;;;;;;;;;6311306;28;20023;-78
2023/05/10 04:33:18;;;;;;;12.87;5.80;;;;;;;;;;6330015;28;20065;-78
2023/05/10 04:36:19;;;;;;;8.43;5.82;;;;;;;;;;6328974;28;20089;-78
2023/05/10 04:39:19;;;;;;;13.03;6.90;;;;;;;;;;6326829;28;20545;-78
2023/05/10 04:42:19;;;;;;;11.98;5.10;;;;;;;;;;6338462;28;20041;-78
2023/05/10 04:45:29;;;;;;;12.07;5.83;;;;;;;;;;6343982;28;20550;-77
2023/05/10 04:48:29;;;;;;;10.05;5.40;;;;;;;;;;6323308;28;20050;-78
2023/05/10 04:51:31;;;;;;;13.63;6.43;;;;;;;;;;6329332;28;20485;-78
2023/05/10 04:54:31;;;;;;;13.13;6.18;;;;;;;;;;6330157;28;20488;-78
2023/05/10 04:57:32;;;;;;;12.07;6.28;;;;;;;;;;6330754;28;20019;-78
2023/05/10 05:00:33;;;;;;;10.77;6.13;;;;;;;;;;6322241;28;20016;-73
2023/05/10 05:03:33;;;;;;;9.95;4.97;;;;;;;;;;6340409;28;20533;-74
2023/05/10 05:06:33;;;;;;;14.23;6.20;;;;;;;;;;6332816;28;20442;-74
2023/05/10 05:09:33;;;;;;;13.77;5.50;;;;;;;;;;6332163;28;20015;-74
2023/05/10 05:12:34;;;;;;;8.80;4.43;;;;;;;;;;6319347;28;20428;-75
2023/05/10 05:15:34;;;;;;;11.77;5.77;;;;;;;;;;6320062;28;20008;-75
2023/05/10 05:18:34;;;;;;;10.07;4.17;;;;;;;;;;6329950;28;20004;-75
2023/05/10 05:21:35;;;;;;;8.03;4.87;;;;;;;;;;6342389;28;20745;-75
2023/05/10 05:24:37;;;;;;;9.80;5.27;;;;;;;;;;6338247;28;20107;-75
2023/05/10 05:27:37;;;;;;;7.35;5.10;;;;;;;;;;6342582;28;20020;-75
2023/05/10 05:30:38;;;;;;;11.10;4.93;;;;;;;;;;6323333;28;20039;-75
2023/05/10 05:33:38;;;;;;;10.20;5.20;;;;;;;;;;6329911;28;20012;-75
2023/05/10 05:36:38;;;;;;;7.90;4.33;;;;;;;;;;6338639;28;20027;-75
2023/05/10 05:39:38;;;;;;;9.73;4.77;;;;;;;;;;6333326;28;20426;-75
2023/05/10 05:42:38;;;;;;;10.43;4.60;;;;;;;;;;6334065;28;20019;-75
2023/05/10 05:45:39;;;;;;;6.90;3.70;;;;;;;;;;6334143;28;20535;-75
2023/05/10 05:48:39;;;;;;;13.07;4.77;;;;;;;;;;6321221;28;20039;-75
2023/05/10 05:51:39;;;;;;;11.47;5.13;;;;;;;;;;6329354;28;20012;-75
2023/05/10 05:54:39;;;;;;;9.47;4.33;;;;;;;;;;6324004;28;20027;-75
2023/05/10 05:57:39;;;;;;;7.43;4.57;;;;;;;;;;6338149;28;20000;-75
2023/05/10 06:00:40;;;;;;;9.82;4.38;;;;;;;;;;6339518;28;20518;-75
2023/05/10 06:03:40;;;;;;;6.37;3.03;;;;;;;;;;6334671;28;20016;-75
2023/05/10 06:06:40;;;;;;;6.17;3.77;;;;;;;;;;6322509;28;20537;-75
2023/05/10 06:09:40;;;;;;;7.70;3.87;;;;;;;;;;6330722;28;20529;-75
2023/05/10 06:12:41;;;;;;;7.53;3.60;;;;;;;;;;6337498;28;20030;-75
2023/05/10 06:15:41;;;;;;;6.60;3.57;;;;;;;;;;6329567;28;20031;-75
2023/05/10 06:18:41;;;;;;;7.13;3.63;;;;;;;;;;6327298;28;20030;-75
2023/05/10 06:21:42;;;;;;;7.13;3.20;;;;;;;;;;6338366;28;20020;-75
2023/05/10 06:24:43;;;;;;;8.15;3.50;;;;;;;;;;6333747;28;20023;-75
2023/05/10 06:27:43;;;;;;;7.78;3.53;;;;;;;;;;6338687;28;20168;-75
2023/05/10 06:30:44;;;;;;;7.80;3.53;;;;;;;;;;6330077;28;20020;-75
2023/05/10 06:33:44;;;;;;;6.93;3.20;;;;;;;;;;6330591;28;20055;-75
2023/05/10 06:36:44;;;;;;;9.63;3.17;;;;;;;;;;6336111;28;20012;-75
2023/05/10 06:39:45;;;;;;;7.73;2.83;;;;;;;;;;6335624;28;20050;-75
2023/05/10 06:42:46;;;;;;;5.27;2.87;;;;;;;;;;6320369;28;20035;-75
2023/05/10 06:45:47;;;;;;;9.95;4.25;;;;;;;;;;6327951;28;20370;-75
2023/05/10 06:48:47;;;;;;;;;;;;;;;;;;6334727;28;20044;-75
2023/05/10 06:51:48;;;;;;;6.03;3.30;;;;;;;;;;6334884;28;19934;-75
2023/05/10 06:54:48;;;;;;;5.68;2.90;;;;;;;;;;6333163;28;20023;-75
2023/05/10 06:57:48;;;;;;;4.37;3.27;;;;;;;;;;6325730;28;20024;-75
2023/05/10 07:00:48;;;;;;;7.20;3.10;;;;;;;;;;6346100;28;20044;-75
2023/05/10 07:03:48;;;;;;;5.95;2.97;;;;;;;;;;6327207;28;20078;-76
2023/05/10 07:06:49;;;;;;;5.30;2.28;;;;;;;;;;6332967;28;20095;-76
2023/05/10 07:09:49;;;;;;;;;;;;;;;;;;6333617;28;20031;-76
2023/05/10 07:12:50;;;;;;;5.10;2.10;;;;;;;;;;6336198;28;20007;-76
2023/05/10 07:15:50;;;;;;;;;;;;;;;;;;6330826;28;20031;-75
2023/05/10 07:18:50;;;;;;;2.67;2.20;;;;;;;;;;6334301;28;19904;-75
2023/05/10 07:21:50;;;;;;;;;;;;;;;;;;6330126;28;20532;-75
2023/05/10 07:24:50;;;;;;;8.25;2.60;;;;;;;;;;6332269;28;19904;-75
2023/05/10 07:27:51;;;;;;;;;;;;;;;;;;6336328;28;20035;-75
2023/05/10 07:30:51;;;;;;;3.35;2.03;;;;;;;;;;6329037;28;19911;-75
2023/05/10 07:33:51;;;;;;;;;;;;;;;;;;6322484;28;20544;-75
2023/05/10 07:36:51;;;;;;;3.13;2.25;;;;;;;;;;6327956;28;19908;-75
2023/05/10 07:39:52;;;;;;;3.05;2.10;;;;;;;;;;6329218;28;20550;-75
2023/05/10 07:42:52;;;;;;;3.93;2.03;;;;;;;;;;6324358;28;20024;-75
2023/05/10 07:45:52;;;;;;;6.97;2.43;;;;;;;;;;6326964;28;20051;-75
2023/05/10 07:48:52;;;;;;;2.33;2.13;;;;;;;;;;6334334;28;20126;-75
2023/05/10 07:51:52;;;;;;;2.73;1.97;;;;;;;;;;6334611;28;20445;-74
2023/05/10 07:54:53;;;;;;;8.77;2.10;;;;;;;;;;6305996;28;20039;-75
2023/05/10 07:57:53;;;;;;;4.50;1.98;;;;;;;;;;6332817;28;20035;-75
2023/05/10 08:00:53;;;;;;;5.03;1.80;;;;;;;;;;6333817;28;20071;-77
2023/05/10 08:03:54;;;;;;;2.37;1.83;;;;;;;;;;6320999;28;20115;-77
2023/05/10 08:06:54;;;;;;;2.87;1.63;;;;;;;;;;6330919;27;20020;-77
2023/05/10 08:09:54;;;;;;;2.67;2.30;;;;;;;;;;6324784;28;20164;-77
2023/05/10 08:12:54;;;;;;;4.47;2.00;;;;;;;;;;6337635;28;20062;-77
2023/05/10 08:15:55;;;;;;;4.03;1.70;;;;;;;;;;6337356;28;20098;-77
2023/05/10 08:18:55;;;;;;;4.77;1.80;;;;;;;;;;6338035;28;20015;-77
2023/05/10 08:21:55;;;;;;;4.30;2.10;;;;;;;;;;6335090;28;20157;-77
2023/05/10 08:24:55;;;;;;;2.77;1.90;;;;;;;;;;6335290;28;20085;-77
2023/05/10 08:27:55;;;;;;;3.78;2.15;;;;;;;;;;6334044;28;20476;-78
2023/05/10 08:30:56;;;;;;;3.87;1.33;;;;;;;;;;6330485;28;20059;-77
2023/05/10 08:33:56;;;;;;;3.50;1.80;;;;;;;;;;6304846;28;20034;-77
2023/05/10 08:36:56;;;;;;;2.25;1.35;;;;;;;;;;6327774;28;20016;-77
2023/05/10 08:39:56;;;;;;;3.03;2.20;;;;;;;;;;6332565;28;20055;-77
2023/05/10 08:43:15;;;;;;;3.38;1.60;;;;;;;;;;6319398;28;20461;-78
2023/05/10 08:46:17;;;;;;;3.65;1.77;;;;;;;;;;6335979;28;20111;-78
2023/05/10 08:49:19;;;;;;;4.47;1.50;;;;;;;;;;6329749;28;20051;-77
2023/05/10 08:52:20;;;;;;;3.55;1.80;;;;;;;;;;6335818;28;20028;-77
2023/05/10 08:55:23;;;;;;;3.65;1.75;;;;;;;;;;6309433;28;20024;-77
2023/05/10 08:58:23;;;;;;;2.75;1.80;;;;;;;;;;6314471;28;20115;-77
2023/05/10 09:01:24;;;;;;;1.97;1.53;;;;;;;;;;6330764;28;20053;-78
2023/05/10 09:04:24;;;;;;;3.38;1.80;;;;;;;;;;6326342;28;20035;-78
2023/05/10 09:07:25;;;;;;;2.57;1.60;;;;;;;;;;6331299;28;20401;-78
2023/05/10 09:10:26;;;;;;;3.63;1.70;;;;;;;;;;6330997;28;20024;-76
2023/05/10 09:13:26;;;;;;;;;;;;;;;;;;6330648;28;20081;-76
2023/05/10 09:16:27;;;;;;;6.55;1.98;;;;;;;;;;6335688;28;19911;-76
2023/05/10 09:19:27;;;;;;;9.40;4.70;;;;;;;;;;6330618;28;20019;-76
2023/05/10 09:22:28;;;;;;;3.35;1.73;;;;;;;;;;6326488;28;20030;-76
2023/05/10 09:25:28;;;;;;;6.57;1.77;;;;;;;;;;6322039;28;20026;-76
2023/05/10 09:28:31;;;;;;;5.33;1.67;;;;;;;;;;6316454;28;20094;-76
2023/05/10 09:31:51;;;;;;;3.10;2.28;;;;;;;;;;6334332;28;20019;-76
2023/05/10 09:34:51;;;;;;;5.25;1.88;;;;;;;;;;6335325;28;20047;-75
2023/05/10 09:37:53;;;;;;;3.33;1.80;;;;;;;;;;6323418;28;20085;-76
2023/05/10 09:40:54;;;;;;;5.55;2.30;;;;;;;;;;6336915;28;20496;-76
2023/05/10 09:43:57;;;;;;;3.73;2.20;;;;;;;;;;6304975;28;20031;-76
2023/05/10 09:46:58;;;;;;;3.78;2.10;;;;;;;;;;6326095;28;20020;-76
2023/05/10 09:50:03;;;;;;;5.60;1.85;;;;;;;;;;6317384;28;20055;-76
2023/05/10 09:53:03;;;;;;;2.17;1.60;;;;;;;;;;6322196;28;20045;-76
2023/05/10 09:56:03;;;;;;;3.07;1.60;;;;;;;;;;6322227;28;20024;-76
2023/05/10 09:59:04;;;;;;;3.57;2.30;;;;;;;;;;6335551;28;20480;-76
2023/05/10 10:02:04;;;;;;;2.03;1.43;;;;;;;;;;6342782;27;20077;-75
2023/05/10 10:05:06;;;;;;;2.70;1.90;;;;;;;;;;6338558;27;20024;-76
2023/05/10 10:08:06;;;;;;;2.72;1.70;;;;;;;;;;6352749;27;20019;-76
2023/05/10 10:11:06;;;;;;;4.57;2.00;;;;;;;;;;6342956;28;20031;-75
2023/05/10 10:14:06;;;;;;;4.03;1.73;;;;;;;;;;6327445;28;20028;-75
2023/05/10 10:17:07;;;;;;;9.10;1.60;;;;;;;;;;6327507;28;20392;-76
2023/05/10 10:20:07;;;;;;;3.93;2.50;;;;;;;;;;6331252;27;20012;-76
2023/05/10 10:23:08;;;;;;;5.10;1.77;;;;;;;;;;6312188;28;20107;-76
2023/05/10 10:26:08;;;;;;;3.03;1.83;;;;;;;;;;6335312;28;20429;-76
2023/05/10 10:29:27;;;;;;;3.93;2.40;;;;;;;;;;6326784;28;20457;-75
2023/05/10 10:32:33;;;;;;;3.03;1.90;;;;;;;;;;6338840;28;20776;-75
2023/05/10 10:35:33;;;;;;;3.28;1.80;;;;;;;;;;6334930;27;20406;-76
2023/05/10 10:39:00;;;;;;;1.98;1.60;;;;;;;;;;6339947;28;20047;-75
2023/05/10 10:42:02;;;;;;;2.67;1.63;;;;;;;;;;6317283;28;20473;-76
2023/05/10 10:45:12;;;;;;;5.50;2.28;;;;;;;;;;6304628;28;20016;-77
2023/05/10 10:48:22;;;;;;;2.90;1.95;;;;;;;;;;6322554;28;20015;-77
2023/05/10 10:51:23;;;;;;;4.40;2.20;;;;;;;;;;6327192;28;20027;-77
2023/05/10 10:54:29;;;;;;;3.47;1.83;;;;;;;;;;6333937;27;20038;-77
2023/05/10 10:57:33;;;;;;;6.60;2.90;;;;;;;;;;6339776;27;20063;-77
2023/05/10 11:00:37;;;;;;;2.45;1.85;;;;;;;;;;6337668;28;20099;-77
2023/05/10 11:03:37;;;;;;;4.80;1.75;;;;;;;;;;6331836;28;20030;-77
2023/05/10 11:06:37;;;;;;;4.20;2.17;;;;;;;;;;6333422;28;20051;-77
2023/05/10 11:09:40;;;;;;;3.20;1.97;;;;;;;;;;6316357;28;20020;-77
2023/05/10 11:12:50;;;;;;;4.72;2.35;;;;;;;;;;6309378;28;20024;-77
2023/05/10 11:15:51;;;;;;;3.92;2.05;;;;;;;;;;6325058;28;20028;-77
2023/05/10 11:18:53;;;;;;;6.83;2.50;;;;;;;;;;6328521;28;20097;-77
2023/05/10 11:22:05;;;;;;;3.30;1.50;;;;;;;;;;6336317;27;20484;-77
2023/05/10 11:25:06;;;;;;;5.88;2.80;;;;;;;;;;6344064;28;20023;-77
2023/05/10 11:28:07;;;;;;;3.05;1.90;;;;;;;;;;6311814;28;20028;-77
2023/05/10 11:31:07;;;;;;;4.90;2.17;;;;;;;;;;6326885;28;20065;-77
2023/05/10 11:34:07;;;;;;;3.70;1.97;;;;;;;;;;6331881;28;20313;-77
2023/05/10 11:37:07;;;;;;;4.33;2.40;;;;;;;;;;6334947;28;20020;-77
2023/05/10 11:40:09;;;;;;;5.37;2.67;;;;;;;;;;6321105;28;20016;-76
2023/05/10 11:43:11;;;;;;;3.20;2.00;;;;;;;;;;6331010;28;20450;-77
2023/05/10 11:46:11;;;;;;;4.65;2.55;;;;;;;;;;6329416;27;20066;-77
2023/05/10 11:49:13;;;;;;;7.97;2.80;;;;;;;;;;6332843;28;20490;-77
2023/05/10 11:52:13;;;;;;;4.57;2.17;;;;;;;;;;6341265;27;20793;-75
2023/05/10 11:55:13;;;;;;;3.93;2.20;;;;;;;;;;6335102;28;20137;-76
2023/05/10 11:58:13;;;;;;;5.97;2.50;;;;;;;;;;6326921;28;20091;-76
2023/05/10 12:01:14;;;;;;;3.43;2.40;;;;;;;;;;6329411;27;20016;-75
2023/05/10 12:04:14;;;;;;;4.77;2.40;;;;;;;;;;6329528;28;20016;-76
2023/05/10 12:07:14;;;;;;;5.17;1.93;;;;;;;;;;6334153;28;20091;-76
2023/05/10 12:10:14;;;;;;;6.77;2.60;;;;;;;;;;6319878;28;20074;-76
2023/05/10 12:13:15;;;;;;;7.57;2.40;;;;;;;;;;6340537;28;20538;-75
2023/05/10 12:16:25;;;;;;;5.23;2.07;;;;;;;;;;6340063;28;20038;-76
2023/05/10 12:19:26;;;;;;;5.57;2.33;;;;;;;;;;6320836;28;20474;-76
2023/05/10 12:22:26;;;;;;;6.40;2.07;;;;;;;;;;6338562;28;20016;-76
2023/05/10 12:25:29;;;;;;;5.57;2.50;;;;;;;;;;6335830;28;20043;-75
2023/05/10 12:28:30;;;;;;;3.50;1.90;;;;;;;;;;6323944;28;20099;-75
2023/05/10 12:31:30;;;;;;;3.33;2.30;;;;;;;;;;6327318;28;20030;-75
2023/05/10 12:34:31;;;;;;;4.73;2.37;;;;;;;;;;6324439;28;20020;-75
2023/05/10 12:37:35;;;;;;;6.95;2.70;;;;;;;;;;6327278;28;20015;-75
2023/05/10 12:40:35;;;;;;;4.90;2.47;;;;;;;;;;6307214;28;20740;-77
2023/05/10 12:43:36;;;;;;;2.83;2.33;;;;;;;;;;6301034;28;20027;-77
2023/05/10 12:46:36;;;;;;;3.67;2.40;;;;;;;;;;6336758;28;20061;-77
2023/05/10 12:49:36;;;;;;;4.07;2.23;;;;;;;;;;6332852;28;20043;-77
2023/05/10 12:52:37;;;;;;;4.83;2.10;;;;;;;;;;6323503;28;20435;-77
2023/05/10 12:55:37;;;;;;;4.10;2.63;;;;;;;;;;6317739;28;20008;-77
2023/05/10 12:58:37;;;;;;;;;;;;;;;;;;6305470;28;20024;-77
2023/05/10 13:01:38;;;;;;;3.92;2.08;;;;;;;;;;6317084;28;19908;-75
2023/05/10 13:04:39;;;;;;;;;;;;;;;;;;6325722;28;20020;-75
2023/05/10 13:07:39;;;;;;;6.47;2.30;;;;;;;;;;6327585;28;19994;-75
2023/05/10 13:10:40;;;;;;;;;;;;;;;;;;6320208;28;20027;-75
2023/05/10 13:13:40;;;;;;;12.90;4.47;;;;;;;;;;6318165;28;19912;-75
2023/05/10 13:16:40;;;;;;;5.43;2.33;;;;;;;;;;6324682;28;20027;-75
2023/05/10 13:19:40;;;;;;;;;;;;;;;;;;6330177;28;20599;-75
2023/05/10 13:22:43;;;;;;;12.07;3.95;;;;;;;;;;6332380;28;19927;-75
2023/05/10 13:25:43;;;;;;;3.30;1.80;;;;;;;;;;6330748;28;20082;-76
2023/05/10 13:28:43;;;;;;;;;;;;;;;;;;6330649;27;20055;-76
2023/05/10 13:31:43;;;;;;;6.10;2.47;;;;;;;;;;6329395;27;19968;-75
2023/05/10 13:34:44;;;;;;;4.65;2.20;;;;;;;;;;6332569;28;20481;-75
2023/05/10 13:37:44;;;;;;;6.13;2.38;;;;;;;;;;6332077;28;20019;-75
2023/05/10 13:40:44;;;;;;;17.10;4.97;;;;;;;;;;6331170;28;20031;-75
2023/05/10 13:43:44;;;;;;;20.17;7.03;;;;;;;;;;6327784;28;20023;-75
2023/05/10 13:46:44;;;;;;;37.70;11.70;;;;;;;;;;6344196;27;20027;-75
2023/05/10 13:49:45;;;;;;;20.60;6.23;;;;;;;;;;6331882;28;20052;-77
2023/05/10 13:52:45;;;;;;;;;;;;;;;;;;6325713;28;20386;-76
2023/05/10 13:55:45;;;;;;;9.18;2.75;;;;;;;;;;6320247;28;19908;-77
2023/05/10 13:58:46;;;;;;;;;;;;;;;;;;6331923;28;20256;-77
2023/05/10 14:01:46;;;;;;;2.90;1.83;;;;;;;;;;6319695;28;19978;-76
2023/05/10 14:04:46;;;;;;;5.37;1.47;;;;;;;;;;6323657;28;20520;-77
2023/05/10 14:07:47;;;;;;;4.10;2.17;;;;;;;;;;6323550;28;20482;-77
2023/05/10 14:10:48;;;;;;;;;;;;;;;;;;6330485;28;20269;-77
2023/05/10 14:13:48;;;;;;;7.80;2.47;;;;;;;;;;6325089;28;20358;-77
2023/05/10 14:16:48;;;;;;;6.78;2.50;;;;;;;;;;6331563;28;20020;-77
2023/05/10 14:19:48;;;;;;;;;;;;;;;;;;6324812;28;20016;-76
2023/05/10 14:22:49;;;;;;;4.38;2.05;;;;;;;;;;6323921;28;20361;-76
2023/05/10 14:25:49;;;;;;;;;;;;;;;;;;6331940;28;20035;-77
2023/05/10 14:28:49;;;;;;;8.83;2.63;;;;;;;;;;6328232;28;19904;-76
2023/05/10 14:31:50;;;;;;;6.17;1.83;;;;;;;;;;6334916;28;20023;-76
2023/05/10 14:34:50;;;;;;;;;;;;;;;;;;6330190;28;20012;-77
2023/05/10 14:37:50;;;;;;;5.05;2.55;;;;;;;;;;6336403;28;19904;-77
2023/05/10 14:40:50;;;;;;;;;;;;;;;;;;6333130;28;20485;-76
2023/05/10 14:43:51;;;;;;;4.57;2.10;;;;;;;;;;6321973;28;19904;-77
2023/05/10 14:46:51;;;;;;;2.58;1.83;;;;;;;;;;6328934;27;20020;-77
2023/05/10 14:49:51;;;;;;;3.13;2.30;;;;;;;;;;6336080;28;20445;-77
2023/05/10 14:52:53;;;;;;;9.23;3.00;;;;;;;;;;6343380;28;20119;-76
2023/05/10 14:55:53;;;;;;;9.35;3.13;;;;;;;;;;6305262;28;20035;-76
2023/05/10 14:58:53;;;;;;;3.90;2.50;;;;;;;;;;6326835;28;20019;-77
2023/05/10 15:01:53;;;;;;;5.83;2.63;;;;;;;;;;6334246;28;20424;-75
2023/05/10 15:04:54;;;;;;;4.83;2.50;;;;;;;;;;6327292;28;20157;-75
2023/05/10 15:07:55;;;;;;;7.33;2.03;;;;;;;;;;6332826;28;20019;-75
2023/05/10 15:10:55;;;;;;;8.98;2.25;;;;;;;;;;6330190;28;20053;-75
2023/05/10 15:13:56;;;;;;;7.80;2.33;;;;;;;;;;6324610;28;20016;-75
2023/05/10 15:16:56;;;;;;;6.13;2.37;;;;;;;;;;6322183;28;20035;-75
2023/05/10 15:19:56;;;;;;;7.27;2.50;;;;;;;;;;6334082;28;20440;-75
2023/05/10 15:22:57;;;;;;;4.43;2.67;;;;;;;;;;6344737;28;20101;-75
2023/05/10 15:25:57;;;;;;;3.57;2.47;;;;;;;;;;6343500;28;20261;-75
2023/05/10 15:28:57;;;;;;;4.57;2.23;;;;;;;;;;6322616;28;20028;-74
2023/05/10 15:31:57;;;;;;;3.23;2.20;;;;;;;;;;6333872;28;20482;-74
2023/05/10 15:34:59;;;;;;;3.60;2.47;;;;;;;;;;6325834;28;20070;-74
2023/05/10 15:37:59;;;;;;;4.97;2.05;;;;;;;;;;6337075;28;20019;-75
2023/05/10 15:40:59;;;;;;;5.60;2.87;;;;;;;;;;6333910;28;20031;-75
2023/05/10 15:43:59;;;;;;;4.83;2.50;;;;;;;;;;6337386;28;20011;-76
2023/05/10 15:47:00;;;;;;;3.23;2.30;;;;;;;;;;6331116;28;20016;-76
2023/05/10 15:50:00;;;;;;;4.00;2.47;;;;;;;;;;6313944;28;20521;-75
2023/05/10 15:53:01;;;;;;;5.10;2.30;;;;;;;;;;6338312;28;20482;-76
2023/05/10 15:56:01;;;;;;;7.47;2.57;;;;;;;;;;6321485;28;20023;-76
2023/05/10 15:59:02;;;;;;;7.40;2.60;;;;;;;;;;6327833;28;20472;-76
2023/05/10 16:02:03;;;;;;;3.47;2.20;;;;;;;;;;6333066;28;20106;-76
2023/05/10 16:05:03;;;;;;;5.67;2.70;;;;;;;;;;6331936;28;20473;-76
2023/05/10 16:08:03;;;;;;;5.97;2.27;;;;;;;;;;6324990;28;20364;-76
2023/05/10 16:11:04;;;;;;;6.10;2.57;;;;;;;;;;6329191;28;20027;-76
2023/05/10 16:14:04;;;;;;;12.37;2.97;;;;;;;;;;6339261;28;20442;-77
2023/05/10 16:17:04;;;;;;;7.10;2.20;;;;;;;;;;6318795;28;20700;-77
2023/05/10 16:20:05;;;;;;;4.17;2.10;;;;;;;;;;6327477;28;20004;-77
2023/05/10 16:23:06;;;;;;;6.00;2.90;;;;;;;;;;6331936;28;20388;-77
2023/05/10 16:26:06;;;;;;;5.47;2.47;;;;;;;;;;6333251;28;20166;-77
2023/05/10 16:29:07;;;;;;;5.83;2.73;;;;;;;;;;6339942;28;20050;-77
2023/05/10 16:32:07;;;;;;;5.10;2.42;;;;;;;;;;6307944;28;20024;-77
2023/05/10 16:35:09;;;;;;;6.07;2.33;;;;;;;;;;6325022;28;20081;-77
2023/05/10 16:38:14;;;;;;;4.53;2.65;;;;;;;;;;6326149;27;20035;-77
2023/05/10 16:41:14;;;;;;;6.15;3.65;;;;;;;;;;6328608;27;20062;-78
2023/05/10 16:44:15;;;;;;;6.07;2.67;;;;;;;;;;6326161;28;20723;-78
2023/05/10 16:47:16;;;;;;;5.85;3.20;;;;;;;;;;6336642;28;20039;-78
2023/05/10 16:50:16;;;;;;;4.07;2.70;;;;;;;;;;6331525;28;20040;-76
2023/05/10 16:53:17;;;;;;;6.03;2.50;;;;;;;;;;6327040;27;20020;-74
2023/05/10 16:56:17;;;;;;;9.83;2.13;;;;;;;;;;6336929;28;20597;-76
2023/05/10 16:59:18;;;;;;;4.72;2.55;;;;;;;;;;6341611;28;20061;-74
2023/05/10 17:02:19;;;;;;;10.40;2.37;;;;;;;;;;6336195;28;20016;-77
2023/05/10 17:05:20;;;;;;;5.47;2.70;;;;;;;;;;6335375;28;20020;-77
2023/05/10 17:08:20;;;;;;;6.10;2.67;;;;;;;;;;6329208;28;20023;-75
2023/05/10 17:11:21;;;;;;;5.37;2.87;;;;;;;;;;6328907;28;20026;-75
2023/05/10 17:14:21;;;;;;;4.83;3.03;;;;;;;;;;6323764;28;20032;-75
2023/05/10 17:17:22;;;;;;;9.17;2.93;;;;;;;;;;6310321;28;20016;-75
2023/05/10 17:20:22;;;;;;;6.83;2.77;;;;;;;;;;6325627;28;20064;-75
2023/05/10 17:23:22;;;;;;;8.07;2.80;;;;;;;;;;6330375;28;20334;-75
2023/05/10 17:26:23;;;;;;;3.23;2.77;;;;;;;;;;6329604;28;20059;-76
2023/05/10 17:29:23;;;;;;;3.10;2.23;;;;;;;;;;6334404;27;20026;-75
2023/05/10 17:32:24;;;;;;;5.97;2.77;;;;;;;;;;6338831;28;20031;-76
2023/05/10 17:35:25;;;;;;;8.23;2.83;;;;;;;;;;6330873;28;20070;-77
2023/05/10 17:38:25;;;;;;;5.47;2.37;;;;;;;;;;6305443;28;20471;-77
2023/05/10 17:41:26;;;;;;;7.03;3.57;;;;;;;;;;6317425;28;20026;-75
2023/05/10 17:44:26;;;;;;;4.27;2.80;;;;;;;;;;6321974;28;20028;-76
2023/05/10 17:47:26;;;;;;;3.20;2.37;;;;;;;;;;6332362;28;20086;-76
2023/05/10 17:50:26;;;;;;;12.20;3.00;;;;;;;;;;6326652;28;20048;-76
2023/05/10 17:53:27;;;;;;;5.80;2.70;;;;;;;;;;6332402;28;20396;-76
2023/05/10 17:56:27;;;;;;;6.83;2.63;;;;;;;;;;6326391;28;20493;-77
2023/05/10 17:59:28;;;;;;;4.63;2.83;;;;;;;;;;6332479;28;20039;-77
2023/05/10 18:02:28;;;;;;;4.47;2.60;;;;;;;;;;6324803;28;20016;-79
2023/05/10 18:05:28;;;;;;;3.73;2.33;;;;;;;;;;6330338;28;20031;-78
2023/05/10 18:08:29;;;;;;;7.60;3.00;;;;;;;;;;6341164;28;20031;-79